x

9076027 - West Neebish, Mi (wnem4) Weather Station

3:54pm - Wed 27th Jul 2016 All times are CDT. -5 hours from GMT.

  • Wind
    10mph, 11mph gusts
  • Air Temp 77°f
  • Sea Pressure 1013mb
  • 9076027 - West Neebish, Mi
  • 9076027 - West Neebish, Mi

More Historic Weather Station data

Upgrade to MSW Pro to gain access to the past 30 days of data for over 8000 Wavebouys and Weather Stations around the globe.

Join Pro

Comparision Forecast

View Surf forecast
   
Wed 07/27 3:54pm 10 11 mph 1013mb 77f
3:48pm 9 13 mph 1013mb 77f
3:42pm 9 11 mph 1013mb 77f
3:36pm 9 14 mph 1013mb 77f
3:30pm 9 13 mph 1012.9mb 77f
3:24pm 9 13 mph 1012.9mb 77f
3:18pm 10 14 mph 1013mb 77f
3:12pm 10 14 mph 1013mb 78f
3:06pm 9 13 mph 1012.9mb 78f
3:00pm 10 14 mph 1012.8mb 78f
2:54pm 9 13 mph 1012.9mb 78f
2:48pm 9 13 mph 1012.9mb 77f
2:42pm 9 13 mph 1012.9mb 77f
2:36pm 10 14 mph 1012.9mb 77f
2:30pm 9 15 mph 1013mb 77f
2:24pm 8 13 mph 1013.2mb 77f
2:18pm 10 13 mph 1013.2mb 78f
2:12pm 7 9 mph 1013.3mb 77f
2:06pm 8 11 mph 1013.4mb 77f
2:00pm 11 14 mph 1013.4mb 77f
1:54pm 10 15 mph 1013.3mb 77f
1:48pm 9 13 mph 1013.4mb 77f
1:42pm 10 13 mph 1013.5mb 77f
1:36pm 10 14 mph 1013.6mb 77f
1:30pm 9 13 mph 1013.5mb 77f
1:24pm 8 11 mph 1013.5mb 77f
1:18pm 7 11 mph 1013.5mb 77f
1:12pm 8 10 mph 1013.5mb 77f
1:06pm 6 8 mph 1013.6mb 77f
1:00pm 6 9 mph 1013.6mb 77f
12:54pm 7 9 mph 1013.6mb 76f
12:48pm 5 7 mph 1013.6mb 77f
12:42pm 3 5 mph 1013.6mb 75f
12:36pm 2 3 mph 1013.6mb 77f
12:30pm 1 5 mph 1013.6mb 77f
12:24pm 2 5 mph 1013.7mb 76f
12:18pm 3 5 mph 1013.7mb 75f
12:12pm 2 3 mph 1013.6mb 76f
12:06pm 2 3 mph 1013.7mb 76f
12:00pm 2 5 mph 1013.7mb 75f
11:54am 2 3 mph 1013.6mb 74f
11:48am 2
mph
1013.6mb 74f
11:42am 1 2 mph 1013.6mb 76f
11:36am  -  2 mph 1013.7mb 75f
11:30am 2 3 mph 1013.7mb 74f
11:24am 2 5 mph 1013.6mb 74f
11:18am 3 6 mph 1013.6mb 73f
11:12am 3 7 mph 1013.6mb 73f
11:06am 5 7 mph 1013.6mb 72f
11:00am 5 6 mph 1013.6mb 73f
10:54am 2 3 mph 1013.6mb 72f
10:48am 2 3 mph 1013.6mb 72f
10:42am 2 3 mph 1013.5mb 71f
10:36am 2 5 mph 1013.5mb 71f
10:30am 3 6 mph 1013.4mb 70f
10:24am 3 5 mph 1013.4mb 70f
10:18am 6 8 mph 1013.4mb 70f
10:12am 6 8 mph 1013.4mb 69f
10:06am 6 9 mph 1013.4mb 69f
10:00am 5 6 mph 1013.3mb 69f
9:54am 5 6 mph 1013.2mb 69f
9:48am 6 7 mph 1013.1mb 69f
9:42am 3 6 mph 1013.2mb 69f
9:36am 6 7 mph 1013.2mb 68f
9:30am 6 7 mph 1013.2mb 68f
9:24am 5 6 mph 1013.2mb 68f
9:18am 3 5 mph 1013.2mb 68f
9:12am 5 6 mph 1013.2mb 68f
9:06am 3 6 mph 1013.2mb 67f
9:00am 5 6 mph 1013.2mb 67f
8:54am 5 6 mph 1013.2mb 67f
8:48am 5 6 mph 1013.2mb 67f
8:42am 3 5 mph 1013.2mb 67f
8:36am 5 6 mph 1013.1mb 67f
8:30am 5 7 mph 1013mb 66f
8:24am 5 7 mph 1013.1mb 66f
8:18am 3 6 mph 1013.2mb 66f
8:12am 2 3 mph 1013.2mb 66f
8:06am 3
mph
1013.1mb 66f
8:00am 2 3 mph 1013.1mb 65f
7:54am 2 3 mph 1013mb 65f
7:48am 2 5 mph 1013.1mb 65f
7:42am 2 5 mph 1013mb 65f
7:36am 3 6 mph 1013mb 65f
7:30am 5 6 mph 1013mb 64f
7:24am 6 7 mph 1013mb 64f
7:18am 6 7 mph 1012.9mb 64f
7:12am 6 8 mph 1012.9mb 64f
7:06am 6 9 mph 1012.9mb 64f
7:00am 7 9 mph 1012.9mb 64f
6:54am 3 5 mph 1012.7mb 64f
6:48am 2 3 mph 1012.7mb 64f
6:42am 2 3 mph 1012.9mb 64f
6:36am 3 5 mph 1012.9mb 64f
6:30am 3 5 mph 1012.8mb 64f
6:24am 3 5 mph 1012.7mb 64f
6:18am 5
mph
1012.7mb 64f
6:12am 3 5 mph 1012.7mb 64f
6:06am 3 5 mph 1012.7mb 64f
6:00am 3 6 mph 1012.7mb 64f
5:54am 3 5 mph 1012.5mb 64f
5:48am 2 3 mph 1012.5mb 64f
5:42am 2 5 mph 1012.4mb 64f
5:36am 3 6 mph 1012.3mb 64f
5:30am 5
mph
1012.3mb 64f
5:24am 3 5 mph 1012.2mb 64f
5:18am 3 5 mph 1012.1mb 64f
5:12am 3 5 mph 1012.1mb 64f
5:06am 3 5 mph 1012mb 64f
5:00am 3 5 mph 1011.9mb 64f
4:54am 3 5 mph 1011.9mb 64f
4:48am 3 5 mph 1011.8mb 64f
4:42am 3 5 mph 1011.8mb 64f
4:36am 3 5 mph 1011.9mb 64f
4:30am 3 5 mph 1011.8mb 64f
4:24am 5 6 mph 1011.8mb 64f
4:18am 3 6 mph 1011.9mb 64f
4:12am 3 5 mph 1012mb 64f
4:06am 3 5 mph 1011.9mb 64f
4:00am 3 5 mph 1011.8mb 64f
3:54am 3 6 mph 1011.9mb 64f
3:48am 5 6 mph 1011.9mb 64f
3:42am 5
mph
1011.9mb 65f
3:36am 5
mph
1011.8mb 65f
3:30am 3 5 mph 1011.7mb 65f
3:24am 2 3 mph 1011.7mb 65f
3:18am 1
mph
1011.7mb 65f
3:12am  -  2 mph 1011.6mb 65f
3:06am 2
mph
1011.7mb 65f
3:00am 1 2 mph 1011.6mb 65f
2:54am 1 3 mph 1011.6mb 65f
2:48am 3 5 mph 1011.6mb 66f
2:42am 2 5 mph 1011.6mb 66f
2:36am 2 3 mph 1011.6mb 66f
2:30am 2 5 mph 1011.6mb 66f
2:24am 1 2 mph 1011.5mb 66f
2:18am 1 2 mph 1011.5mb 65f
2:12am 2
mph
1011.5mb 66f
2:06am 2
mph
1011.6mb 66f
2:00am  -  2 mph 1011.5mb 66f
1:54am 2
mph
1011.4mb 65f
1:48am 2
mph
1011.5mb 66f
1:42am  -  2 mph 1011.5mb 66f
1:36am 1 2 mph 1011.6mb 66f
1:30am  -  1 mph 1011.5mb 66f
1:24am  -  1 mph 1011.4mb 66f
1:18am  -  1 mph 1011.4mb 66f
1:12am 1 2 mph 1011.4mb 66f
1:06am 2
mph
1011.4mb 66f
1:00am  -  5 mph 1011.4mb 66f
12:54am 2 3 mph 1011.3mb 66f
12:48am 1 2 mph 1011.5mb 67f
12:42am 1 2 mph 1011.5mb 67f
12:36am 2 3 mph 1011.5mb 66f
12:30am 2 3 mph 1011.6mb 66f
12:24am 2 3 mph 1011.7mb 66f
12:18am 1 2 mph 1011.8mb 66f
12:12am 2 3 mph 1011.9mb 66f
12:06am 2 3 mph 1011.8mb 66f
12:00am 2 5 mph 1011.8mb 66f
Tue 07/26 11:54pm 3
mph
1011.7mb 66f
11:48pm 2 3 mph 1011.6mb 66f
11:42pm  -  3 mph 1011.9mb 66f
11:36pm  -  8 mph 1012mb 66f
11:30pm 6 9 mph 1012.1mb 66f
11:24pm 5
mph
1012.1mb 66f
11:18pm 3 5 mph 1012.2mb 66f
11:12pm 2
mph
1012.3mb 66f
11:06pm  -  3 mph 1012.2mb 66f
11:00pm 2 5 mph 1012mb 66f
10:54pm 5 6 mph 1012.1mb 66f
10:48pm 2 5 mph 1012.1mb 66f
10:42pm 3 5 mph 1012.1mb 66f
10:36pm 2 9 mph 1012.4mb 66f
10:30pm 8 9 mph 1012.6mb 66f
10:24pm 9 39 mph 1012.6mb 66f
10:18pm 26 37 mph 1014.1mb -
10:12pm 15 24 mph 1013.9mb -
10:06pm 17 21 mph 1013.3mb -
10:00pm 5 7 mph - -
9:54pm  -  7 mph - -
9:48pm 6 13 mph 1012.1mb -
9:42pm 10 14 mph 1011.6mb -
9:36pm 5 8 mph 1012.5mb -
9:30pm 5 7 mph - 72f
9:24pm 5 11 mph - 73f
9:18pm 8 11 mph 1012.7mb 74f
9:12pm 5 7 mph 1012.6mb 74f
9:06pm 2 5 mph 1012.1mb 74f
9:00pm  -  mph - 74f
8:54pm  -  mph - 74f
8:48pm 3 5 mph - -
8:42pm 2 5 mph - -
8:36pm 3 6 mph - -
8:30pm 3 5 mph - -
8:24pm 1 3 mph - -
8:18pm 3 5 mph - 75f
8:12pm 3
mph
- 75f
8:06pm 2 5 mph - 75f
8:00pm  -  mph - 75f
7:54pm  -  mph - 76f
7:48pm 2 5 mph 1012mb -
7:42pm 5 6 mph 1012.1mb -
7:36pm 2 5 mph 1011.8mb -
7:30pm  -  2 mph - 77f
7:24pm 3 6 mph - 77f
7:18pm  -  mph - 77f
7:12pm  -  mph - 78f
7:06pm  -  mph - 78f
6:30pm 7 14 mph - 81f
6:24pm 7 10 mph - 81f
6:18pm 6 13 mph 1011.8mb -
6:12pm 7 13 mph 1011.9mb -
6:06pm 8 14 mph 1011.9mb -
6:00pm  -  mph 1012mb -
5:54pm  -  mph 1012mb -
5:30pm 8 14 mph 1012.2mb 82f
5:24pm 9 14 mph 1012.2mb 82f
5:18pm 8 14 mph 1012.3mb -
5:12pm 10 17 mph 1012.2mb -
5:06pm 8 16 mph 1012.2mb -
5:00pm  -  mph - 82f
4:54pm  -  mph - 83f
4:48pm 9 15 mph - -
4:42pm 11 16 mph - -
4:36pm 13 18 mph - -
4:30pm 8 15 mph 1012.1mb 83f
4:24pm 10 15 mph 1012.1mb 83f
4:18pm 10 16 mph 1012.2mb 83f
4:12pm 10 15 mph 1012.2mb 83f
4:06pm 10 15 mph 1012.1mb 83f
4:00pm 10 16 mph 1012.2mb 84f
3:54pm 7 13 mph 1012.2mb 84f
3:48pm 7 14 mph 1012.2mb 84f
3:42pm 9 13 mph 1012.2mb 83f
3:36pm 7 10 mph 1012.2mb 84f
3:30pm 7 14 mph 1012.2mb 84f
3:24pm 5 14 mph 1012.2mb 84f
3:18pm 8 13 mph 1012.2mb 83f
3:12pm 6 14 mph 1012.2mb 84f
3:06pm 8 14 mph 1012.3mb 83f
3:00pm 5 13 mph 1012.3mb 83f
2:54pm 8 11 mph 1012.3mb 83f
2:48pm 8 10 mph 1012.3mb 83f
2:42pm 6 11 mph 1012.3mb 84f
2:36pm 5 6 mph 1012.4mb 83f
2:30pm 2 11 mph 1012.4mb 83f
2:24pm 8 10 mph 1012.5mb 83f
2:18pm 9 10 mph 1012.6mb 82f
2:12pm 7 9 mph 1012.6mb 83f
2:06pm 5 9 mph 1012.7mb 83f
2:00pm 7 11 mph 1012.7mb 83f
1:54pm 7 9 mph 1012.8mb 83f
1:48pm 3 9 mph 1012.8mb 83f
1:42pm 6 13 mph 1012.8mb 83f
1:36pm 5 10 mph 1012.9mb 82f
1:30pm 5 9 mph 1012.8mb 82f
1:24pm 5 7 mph 1012.8mb 82f
1:18pm 5 10 mph 1012.9mb 82f
1:12pm 6 9 mph 1013.1mb 82f
1:06pm 7 10 mph 1013.2mb 81f
1:00pm 9 13 mph 1013.2mb 82f
12:54pm 11 16 mph 1013.3mb 81f
12:48pm 5 11 mph 1013.3mb 82f
12:42pm 7 11 mph 1013.4mb 81f
12:36pm 3 8 mph 1013.3mb 81f
12:30pm 5 10 mph 1013.3mb 82f
12:24pm 5 9 mph 1013.4mb 81f
12:18pm 7 14 mph 1013.5mb 80f
12:12pm 7 10 mph 1013.6mb 81f
12:06pm 6 13 mph 1013.7mb 80f
12:00pm 9 11 mph 1013.8mb 80f
11:54am 5 9 mph 1013.8mb 80f
11:48am 8 14 mph 1013.8mb 80f
11:42am 8 10 mph 1013.7mb 80f
11:36am 3 5 mph 1013.7mb 80f
11:30am 5 11 mph 1013.8mb 79f
11:24am 5 11 mph 1013.9mb 78f
11:18am 3 7 mph 1013.9mb 80f
11:12am 6 8 mph 1014mb 78f
11:06am 7 10 mph 1013.9mb 78f
11:00am 3 9 mph 1014mb 78f
10:54am 6 13 mph 1014.1mb 77f
10:48am 6 9 mph 1014.1mb 78f
10:42am 3 5 mph 1014.1mb 78f
10:36am 2 7 mph 1014.1mb 78f
10:30am  -  6 mph 1014.2mb 78f
10:24am 5 6 mph 1014.2mb 77f
10:18am 2 6 mph 1014.2mb 77f
10:12am 7 8 mph 1014.3mb 76f
10:06am 3 5 mph 1014.2mb 76f
10:00am 3 6 mph 1014.3mb 76f
9:54am 3 6 mph 1014.3mb 75f
9:48am 5 6 mph 1014.4mb 75f
9:42am 3 7 mph 1014.4mb 75f
9:36am 2 7 mph 1014.4mb 74f
9:30am 6 8 mph 1014.5mb 74f
9:24am 6 7 mph 1014.5mb 74f
9:18am 3 6 mph 1014.5mb 74f
9:12am 6 7 mph 1014.6mb 73f
9:06am 5
mph
1014.6mb 73f
9:00am 2 6 mph 1014.7mb 73f
8:54am 3 5 mph 1014.7mb 73f
8:48am 3 7 mph 1014.8mb 72f
8:42am 5 7 mph 1014.8mb 72f
8:36am 3 9 mph 1014.8mb 72f
8:30am 7 9 mph 1014.7mb 71f
8:24am 3 6 mph 1014.7mb 71f
8:18am 2 3 mph 1014.7mb 70f
8:12am 2 5 mph 1014.7mb 70f
8:06am 2 5 mph 1014.7mb 69f
8:00am 1 5 mph 1014.8mb 69f
7:54am  -  2 mph 1014.8mb 69f
7:48am  -  1 mph 1014.8mb 69f
7:42am  -  2 mph 1014.7mb 68f
7:36am  -  1 mph 1014.8mb 68f
7:30am  -  mph 1014.7mb 67f
7:24am  -  3 mph 1014.7mb 67f
7:18am 2 3 mph 1014.6mb 66f
7:12am  -  2 mph 1014.6mb 66f
7:06am  -  2 mph 1014.5mb 66f
7:00am  -  1 mph 1014.5mb 65f
6:54am  -  3 mph 1014.5mb 64f
6:48am  -  2 mph 1014.5mb 64f
6:42am  -  1 mph 1014.5mb 63f
6:36am  -  mph 1014.5mb 63f
6:30am  -  mph 1014.5mb 63f
6:24am  -  mph 1014.4mb 62f
6:18am  -  1 mph 1014.4mb 61f
6:12am  -  1 mph 1014.4mb 60f
6:06am  -  2 mph 1014.4mb 59f
6:00am 1 2 mph 1014.4mb 59f
5:54am 1
mph
1014.4mb 59f
5:48am 1 2 mph 1014.4mb 59f
5:42am  -  1 mph 1014.5mb 58f
5:36am  -  1 mph 1014.4mb 59f
5:30am  -  1 mph 1014.4mb 58f
5:24am 1 2 mph 1014.5mb 58f
5:18am  -  mph 1014.4mb 58f
5:12am  -  1 mph 1014.4mb 58f
5:06am  -  2 mph 1014.4mb 58f
5:00am 2
mph
1014.4mb 58f
4:54am 2
mph
1014.3mb 58f
4:48am 1 2 mph 1014.2mb 59f
4:42am  -  mph 1014.2mb 58f
4:36am  -  1 mph 1014.1mb 59f
4:30am 1 2 mph 1014.1mb 59f
4:24am  -  1 mph 1014.1mb 59f
4:18am  -  mph 1014mb 58f
4:12am  -  1 mph 1014mb 59f
4:06am  -  1 mph 1014mb 59f
4:00am 1 2 mph 1014mb 60f
3:54am 2
mph
1014mb 60f
3:48am 2
mph
1014mb 60f
3:42am  -  1 mph 1013.9mb 59f
3:36am  -  2 mph 1013.9mb 59f
3:30am  -  1 mph 1013.9mb 59f
3:24am 2
mph
1013.9mb 59f
3:18am 1
mph
1013.9mb 59f
3:12am  -  1 mph 1013.9mb 59f
3:06am  -  2 mph 1013.9mb 59f
3:00am  -  2 mph 1014mb 59f
2:54am  -  3 mph 1014mb 60f
2:48am 2
mph
1014mb 60f
2:42am 1 2 mph 1014mb 60f
2:36am 2 5 mph 1014mb 60f
2:30am  -  5 mph 1013.9mb 59f
2:24am 3 6 mph 1014mb 59f
2:18am 6 10 mph 1014mb 59f
2:12am 7 8 mph 1014mb 59f
2:06am 1 2 mph 1013.9mb 58f
2:00am  -  1 mph 1013.7mb 59f
1:54am  -  1 mph 1013.7mb 58f
1:48am  -  1 mph 1013.7mb 58f
1:42am  -  1 mph 1013.7mb 58f
1:36am  -  mph 1013.6mb 58f
1:30am  -  1 mph 1013.6mb 59f
1:24am  -  1 mph 1013.6mb 59f
1:18am  -  mph 1013.6mb 58f
1:12am  -  mph 1013.5mb 58f
1:06am  -  mph 1013.5mb 59f
1:00am  -  mph 1013.5mb 59f
12:54am  -  1 mph 1013.6mb 59f
12:48am  -  1 mph 1013.6mb -
12:42am  -  1 mph 1013.7mb -
12:36am 1 2 mph 1013.7mb -
12:30am 1 2 mph 1013.7mb 59f
12:24am  -  1 mph 1013.7mb 59f
12:18am  -  1 mph 1013.6mb 60f
12:12am  -  2 mph 1013.6mb 60f
12:06am 1 2 mph 1013.7mb 60f
12:00am 1
mph
1013.7mb 60f
Mon 07/25 11:54pm  -  1 mph 1013.6mb 60f
11:48pm  -  mph 1013.5mb 60f
11:42pm  -  1 mph 1013.4mb 60f
11:36pm  -  2 mph 1013.5mb 61f
11:30pm 1
mph
1013.5mb 61f
11:24pm  -  mph 1013.4mb 60f
11:18pm  -  mph 1013.3mb 61f
11:12pm  -  1 mph 1013.3mb 61f
11:06pm  -  1 mph 1013.2mb 61f
11:00pm  -  1 mph 1013.2mb 61f
10:54pm  -  mph 1013.1mb 61f
10:48pm  -  1 mph 1013mb 62f
10:42pm  -  1 mph 1013mb 62f
10:36pm  -  mph 1012.9mb 62f
10:30pm  -  3 mph 1012.9mb 63f
10:24pm 3
mph
1013mb 62f
10:18pm  -  2 mph 1013mb 62f
10:12pm  -  2 mph 1013mb 62f
10:06pm  -  mph 1013mb 63f
10:00pm  -  2 mph - 63f
9:54pm 2 3 mph - 64f
9:48pm 1 2 mph 1013mb -
9:42pm  -  2 mph 1012.9mb -
9:36pm 2
mph
1012.9mb -
9:30pm  -  1 mph - 65f
9:24pm 1 3 mph - 65f
9:18pm 3 5 mph - 65f
9:12pm 5 7 mph - 66f
9:06pm 6 7 mph - 65f
9:00pm 5 6 mph - 64f
8:54pm 2 3 mph - 65f
8:48pm  -  2 mph 1012.6mb -
8:42pm 2
mph
1012.5mb -
8:36pm  -  2 mph 1012.3mb -
8:30pm 2
mph
- -
8:24pm 2 3 mph - -
8:18pm 2 3 mph - 67f
8:12pm 2 5 mph - 68f
8:06pm 5 6 mph - 68f
8:00pm 5 8 mph - 69f
7:54pm 6 9 mph - 69f
7:48pm 7 10 mph - -
7:42pm 7 10 mph - -
7:36pm 8 13 mph - -
7:30pm 10 14 mph - 70f
7:24pm 10 16 mph - 70f
7:18pm 14 17 mph - -
7:12pm 11 15 mph - -
7:06pm 10 16 mph - -
7:00pm  -  mph - 70f
6:54pm  -  mph - 70f
6:48pm 14 20 mph 1011.8mb -
6:42pm 17 21 mph 1011.8mb -
6:36pm 13 21 mph 1011.8mb -
6:18pm 16 25 mph 1011.8mb -
6:12pm 17 26 mph 1011.7mb -
6:06pm 17 23 mph 1011.7mb -
6:00pm  -  mph - 70f
5:54pm  -  mph - 70f
5:48pm 15 25 mph 1011.6mb -
5:42pm 17 25 mph 1011.6mb -
5:36pm 22 26 mph 1011.6mb -
5:30pm 22 29 mph 1011.6mb -
5:24pm 21 30 mph 1011.6mb -
5:18pm 20 25 mph - 69f
5:12pm 22 30 mph - 69f
5:06pm 21 29 mph - 69f
4:48pm  -  mph - 69f
4:42pm  -  mph - 69f
4:36pm  -  mph - 69f
4:30pm 20 25 mph 1011.7mb 69f
4:24pm 20 29 mph 1011.7mb 69f
4:18pm 20 26 mph 1011.6mb 69f
4:12pm 22 29 mph 1011.6mb 69f
4:06pm 20 25 mph 1011.6mb 69f
4:00pm 21 25 mph 1011.7mb 69f
3:54pm 18 26 mph 1011.7mb 69f
3:48pm 20 24 mph 1011.7mb 69f
3:42pm 18 23 mph 1011.7mb 69f
3:36pm 18 26 mph 1011.7mb 69f
3:30pm 22 26 mph 1011.6mb 69f
3:24pm 20 28 mph 1011.5mb 70f
3:18pm 15 26 mph 1011.5mb 70f
3:12pm 18 26 mph 1011.6mb 70f
3:06pm 20 25 mph 1011.5mb 70f
3:00pm 20 28 mph 1011.5mb 70f
2:54pm 20 25 mph 1011.5mb 70f
2:48pm 16 24 mph 1011.4mb 70f
2:42pm 22 25 mph 1011.4mb 70f
2:36pm 21 28 mph 1011.3mb 70f
2:30pm 20 25 mph 1011.2mb 70f
2:24pm 20 25 mph 1011.2mb 70f
2:18pm 17 25 mph 1011.2mb 70f
2:12pm 21 31 mph 1011.2mb 70f
2:06pm 20 28 mph 1011.2mb 70f
2:00pm 15 24 mph 1011.1mb 70f
1:54pm 17 25 mph 1011.1mb 70f
1:48pm 22 26 mph 1011.1mb 70f
1:42pm 17 24 mph 1011mb 70f
1:36pm 17 25 mph 1011mb 71f
1:30pm 16 23 mph 1010.9mb 70f
1:24pm 16 22 mph 1010.8mb 71f
1:18pm 17 24 mph 1010.8mb 71f
1:12pm 18 26 mph 1010.8mb 71f
1:06pm 18 26 mph 1010.8mb 71f
1:00pm 22 25 mph 1010.6mb 71f
12:54pm 20 25 mph 1010.6mb 71f
12:48pm 16 28 mph 1010.5mb 71f
12:42pm 16 24 mph 1010.4mb 71f
12:36pm 18 25 mph 1010.4mb 71f
12:30pm 21 26 mph 1010.3mb 71f
12:24pm 16 22 mph 1010.4mb 71f
12:18pm 18 24 mph 1010.3mb 71f
12:12pm 17 23 mph 1010.3mb 71f
12:06pm 16 23 mph 1010.2mb 71f
12:00pm 15 26 mph 1010.3mb 71f
11:54am 15 24 mph 1010.3mb 70f
11:48am 17 23 mph 1010.2mb 70f
11:42am 15 21 mph 1010.3mb 70f
11:36am 15 23 mph 1010.3mb 70f
11:30am 18 28 mph 1010.4mb 70f
11:24am 20 26 mph 1010.3mb 71f
11:18am 22 25 mph 1010.3mb 71f
11:12am 18 29 mph 1010.2mb 71f
11:06am 21 25 mph 1010.1mb 70f
11:00am 21 30 mph 1010.1mb 70f
10:54am 17 25 mph 1009.9mb 71f
10:48am 20 26 mph 1009.7mb 71f
10:42am 16 22 mph 1009.7mb 71f
10:36am 13 22 mph 1009.7mb 71f
10:30am 18 23 mph 1009.7mb 71f
10:24am 18 25 mph 1009.7mb 71f
10:18am 16 21 mph 1009.6mb 72f
10:12am 16 23 mph 1009.6mb 71f
10:06am 11 20 mph 1009.6mb 71f
10:00am 14 20 mph 1009.5mb 71f
9:54am 15 23 mph 1009.5mb 71f
9:48am 15 21 mph 1009.5mb 71f
9:42am 15 21 mph 1009.4mb 71f
9:36am 14 20 mph 1009.4mb 72f
9:30am 14 20 mph 1009.3mb 71f
9:24am 16 18 mph 1009.2mb 71f
9:18am 15 18 mph 1009.2mb 72f
9:12am 13 16 mph 1009.2mb 72f
9:06am 13 18 mph 1009.2mb 72f
9:00am 10 15 mph 1009.2mb 71f
8:54am 9 16 mph 1009.2mb 71f
8:48am 13 15 mph 1009.3mb 71f
8:42am 7 11 mph 1009.3mb 71f
8:36am 10 13 mph 1009.3mb 71f
8:30am 8 10 mph 1009.3mb 71f
8:24am 9 11 mph 1009.2mb 70f
8:18am 6 8 mph 1009.2mb 70f
8:12am 7 11 mph 1009.1mb 70f
8:06am 8 10 mph 1009.1mb 69f
8:00am 5 7 mph 1008.9mb 69f
7:54am 6 7 mph 1008.9mb 69f
7:48am 3 6 mph 1008.9mb 68f
7:42am 6
mph
1008.8mb 68f
7:36am 5 6 mph 1008.7mb 67f
7:30am 2 3 mph 1008.7mb 67f
7:24am 1 2 mph 1008.7mb 67f
7:18am 1 3 mph 1008.7mb 67f
7:12am 2 3 mph 1008.7mb 67f
7:06am 2 3 mph 1008.7mb 66f
7:00am 2 3 mph 1008.7mb 66f
6:54am 1 2 mph 1008.7mb 66f
6:48am  -  2 mph 1008.7mb 66f
6:42am 1 3 mph 1008.8mb 66f
6:36am  -  2 mph 1008.8mb 65f
6:30am  -  2 mph 1008.8mb 65f
6:24am  -  1 mph 1008.8mb 65f
6:18am  -  1 mph 1008.8mb 65f
6:12am  -  2 mph 1008.8mb 65f
6:06am 1 2 mph 1008.8mb 64f
6:00am  -  1 mph 1008.7mb 64f
5:54am 1 2 mph 1008.7mb 64f
5:48am 1 2 mph 1008.6mb 64f
5:42am  -  1 mph 1008.6mb 63f
5:36am 1 2 mph 1008.5mb 63f
5:30am  -  1 mph 1008.5mb 63f
5:24am  -  1 mph 1008.4mb 63f
5:18am  -  1 mph 1008.4mb 64f
5:12am  -  1 mph 1008.3mb 64f
5:06am  -  1 mph 1008.2mb 64f
5:00am  -  mph 1008.1mb 64f
4:54am  -  2 mph 1008.1mb 64f
4:48am 2
mph
1008mb 65f
4:42am 2 3 mph 1008.1mb 65f
4:36am 2 3 mph 1008.1mb 65f
4:30am 2 3 mph 1008.1mb 65f
4:24am 1 2 mph 1008mb 65f
4:18am 1 2 mph 1008mb 65f
4:12am 1
mph
1008.1mb 65f
4:06am  -  1 mph 1008mb 65f
4:00am  -  1 mph 1008mb 66f
3:54am  -  2 mph 1008.1mb 66f
3:48am 1 3 mph 1007.9mb 66f
3:42am 2 5 mph 1007.9mb 67f
3:36am 3 5 mph 1008mb 67f
3:30am 3 5 mph 1007.9mb 67f
3:24am 2 3 mph 1007.9mb 67f
3:18am 3 6 mph 1007.8mb 67f
3:12am 5 7 mph 1007.7mb 68f
3:06am 6 8 mph 1007.7mb 68f
3:00am 5 8 mph 1007.7mb 68f
2:54am 5 7 mph 1007.7mb 69f
2:48am 6 8 mph 1007.7mb 69f
2:42am 5 7 mph 1007.6mb 69f
2:36am 3 6 mph 1007.6mb 69f
2:30am 3 6 mph 1007.6mb 69f
2:24am 2 5 mph 1007.6mb 69f
2:18am 3 6 mph 1007.4mb 69f
2:12am 3 9 mph 1007.4mb 69f
2:06am 3 5 mph 1007.4mb 69f
2:00am 2 5 mph 1007.4mb 69f
1:54am 3 6 mph 1007.4mb 69f
1:48am 3 6 mph 1007.4mb 69f
1:42am 3 6 mph 1007.3mb 69f
1:36am 3 5 mph 1007.3mb 69f
1:30am 2 5 mph 1007.2mb 69f
1:24am 2 5 mph 1007.1mb 69f
1:18am 3 5 mph 1007.2mb 70f
1:12am 3 6 mph 1007.2mb 70f
1:06am 3 7 mph 1007.2mb 70f
1:00am 5 8 mph 1007.3mb 70f
12:54am 3 6 mph 1007.3mb 70f
12:48am 3 5 mph 1007.1mb -
12:42am 3 5 mph 1007.1mb -
12:36am 3 5 mph 1007.2mb -
12:30am 5 6 mph 1007.1mb 70f
12:24am 3 6 mph 1007.1mb 70f
12:18am 3 5 mph 1007.1mb 70f
12:12am 3 6 mph 1007.1mb 71f
12:06am 5 6 mph 1007.1mb 71f
12:00am 5 7 mph 1007.1mb 71f
Sun 07/24 11:54pm 6 9 mph 1007.2mb 71f
11:48pm 7 9 mph 1007.2mb 71f
11:42pm 6 7 mph 1007.1mb 71f
11:36pm 5 7 mph 1007mb 71f
11:30pm 5 6 mph 1007.2mb 71f
11:24pm 3 5 mph 1007.2mb 71f
11:18pm 3
mph
1007.2mb 71f
11:12pm 3 6 mph 1007.3mb 71f
11:06pm 3 5 mph 1007.4mb 71f
11:00pm 2 5 mph 1007.4mb 71f
10:54pm 3 5 mph 1007.4mb 71f
10:48pm 3 5 mph 1007.4mb 71f
10:42pm 3 5 mph 1007.6mb 71f
10:36pm 5 7 mph 1007.6mb 71f
10:30pm 6 8 mph 1007.7mb 71f
10:24pm 6 8 mph 1007.8mb 71f
10:18pm 6 8 mph - 71f
10:12pm 6 8 mph - 71f
10:06pm 6 7 mph - 71f
10:00pm  -  mph 1007.6mb -
9:54pm  -  mph 1007.5mb -
9:48pm 5 8 mph 1007.5mb -
9:42pm 6 10 mph 1007.5mb -
9:36pm 6 8 mph 1007.5mb -
9:30pm 5 7 mph - -
9:24pm 2 5 mph - -
9:18pm 3 5 mph 1007.5mb 72f
9:12pm 3 6 mph 1007.5mb 72f
9:06pm 5 7 mph 1007.4mb 72f
9:00pm  -  mph - 72f
8:54pm  -  mph - 72f
8:48pm 5 7 mph - -
8:42pm 3 8 mph - -
8:36pm 5 7 mph - -
8:30pm 5 7 mph 1007.1mb -
8:24pm 3 9 mph 1007.2mb -
8:18pm 3 6 mph 1007.1mb -
8:12pm 5 7 mph 1007.2mb -
8:06pm 3 8 mph 1007.1mb -
8:00pm 6 9 mph - 72f
7:54pm 5 10 mph - 72f
7:48pm 6 8 mph 1007.2mb -
7:42pm 5 11 mph 1007.1mb -
7:36pm 7 11 mph 1007.2mb -
7:30pm 7 13 mph - -
7:24pm 6 10 mph - -
7:18pm 7 11 mph - 73f
7:12pm 8 13 mph - 73f
7:06pm 7 10 mph - 73f
7:00pm  -  mph - 73f
6:54pm  -  mph - 73f
6:48pm 6 10 mph - -
6:42pm 5 9 mph - -
6:36pm 8 13 mph - -
6:30pm 6 9 mph - -
6:24pm 3 7 mph - -
6:18pm 3 5 mph - -
6:12pm 5 8 mph - -
6:06pm 5 7 mph - -
6:00pm  -  mph - 72f
5:54pm  -  mph - 72f
5:48pm 5 7 mph - -
5:42pm 5 6 mph - -
5:36pm 3 8 mph - -
5:30pm 3 6 mph - -
5:24pm 1 3 mph - -
5:18pm 2 5 mph 1007.7mb 72f
5:12pm 3 7 mph 1007.7mb 72f
5:06pm 2 7 mph 1007.8mb 72f
5:00pm  -  mph - 73f
4:54pm  -  mph - 73f
4:48pm 5 8 mph - 74f
4:42pm 3 7 mph - 73f
4:36pm 2 5 mph - 73f
4:30pm 2 7 mph 1007.8mb 73f
4:24pm 3 7 mph 1007.8mb 72f
4:18pm 5 7 mph 1007.8mb 72f
4:12pm 5 8 mph 1007.8mb 71f
4:06pm 6 7 mph 1007.9mb 71f
4:00pm 5 8 mph 1008.1mb 71f
3:54pm 5 7 mph 1008.2mb 71f
3:48pm 5 7 mph 1008.2mb 71f
3:42pm 6 8 mph 1008.1mb 71f
3:36pm 7 8 mph 1008.1mb 71f
3:30pm 6 8 mph 1008.1mb 71f
3:24pm 5 8 mph 1008.1mb 71f
3:18pm 5 11 mph 1008.2mb 71f
3:12pm 8 10 mph 1008.1mb 71f
3:06pm 6 9 mph 1008.2mb 71f
3:00pm 6 8 mph 1008.3mb 71f
2:54pm 6 8 mph 1008.3mb 71f
2:48pm 8 10 mph 1008.4mb 71f
2:42pm 5 9 mph 1008.3mb 72f
2:36pm 5 9 mph 1008.3mb 71f
2:30pm 7 10 mph 1008.4mb 71f
2:24pm 7 9 mph 1008.5mb 71f
2:18pm 7 9 mph 1008.5mb 71f
2:12pm 6 9 mph 1008.6mb 71f
2:06pm 6 8 mph 1008.8mb 70f
2:00pm 7 8 mph 1008.8mb 70f
1:54pm 6 9 mph 1008.8mb 70f
1:48pm 8 10 mph 1008.8mb 70f
1:42pm 6 9 mph 1008.8mb 71f
1:36pm 7 9 mph 1008.8mb 71f
1:30pm 6 9 mph 1008.9mb 71f
1:24pm 7 9 mph 1008.9mb 71f
1:18pm 6 8 mph 1008.9mb 71f
1:12pm 8 10 mph 1009mb 71f
1:06pm 5 9 mph 1009mb 71f
1:00pm 7 9 mph 1009mb 71f
12:54pm 5 9 mph 1009mb 71f
12:48pm 7 10 mph 1009.1mb 71f
12:42pm 7 10 mph 1009mb 71f
12:36pm 7 14 mph 1009.1mb 71f
12:30pm 7 15 mph 1009mb 72f
12:24pm 8 13 mph 1009.1mb 72f
12:18pm 9 13 mph 1009.1mb 71f
12:12pm 7 11 mph 1009.2mb 71f
12:06pm 8 13 mph 1009.3mb 71f
12:00pm 9 14 mph 1009.4mb 71f
11:54am 8 14 mph 1009.5mb 71f
11:48am 11 14 mph 1009.6mb 71f
11:42am 9 13 mph 1009.4mb 71f
11:36am 8 15 mph 1009.4mb 71f
11:30am 7 14 mph 1009.4mb 71f
11:24am 10 15 mph 1009.4mb 70f
11:18am 7 13 mph 1009.4mb 70f
11:12am 7 10 mph 1009.4mb 70f
11:06am 8 13 mph 1009.4mb 70f
11:00am 8 11 mph 1009.3mb 70f
10:54am 8 11 mph 1009.1mb 70f
10:48am 8 13 mph 1008.8mb 70f
10:42am 8 11 mph 1009mb 70f
10:36am 7 14 mph 1008.7mb 70f
10:30am 8 15 mph 1008.4mb 70f
10:24am 10 16 mph 1008.7mb 69f
10:18am 8 14 mph 1009mb 69f
10:12am 8 15 mph 1009.1mb 68f
10:06am 6 14 mph 1009.1mb 68f
10:00am 6 13 mph 1009.4mb 68f
9:54am 7 14 mph 1009.5mb 68f
9:48am 9 13 mph 1009.7mb 67f
9:42am 9 15 mph 1009.8mb 67f
9:36am 8 15 mph 1009.8mb 67f
9:30am 10 15 mph 1009.6mb 67f
9:24am 10 17 mph 1010mb 67f
9:18am 10 16 mph 1010.1mb 67f
9:12am 8 11 mph 1010.2mb 67f
9:06am 7 13 mph 1010.2mb 66f
9:00am 6 11 mph 1010.3mb 66f
8:54am 6 10 mph 1010.4mb 66f
8:48am 5 10 mph 1010.3mb 66f
8:42am 5 9 mph 1010.4mb 66f
8:36am 5 9 mph 1010.4mb 66f
8:30am 6 9 mph 1010.4mb 66f
8:24am 5 8 mph 1010.5mb 66f
8:18am 5 9 mph 1010.5mb 66f
8:12am 7 11 mph 1010.7mb 65f
8:06am 5 8 mph 1010.9mb 65f
8:00am 3 6 mph 1011.2mb 65f
7:54am 2 8 mph 1011.4mb 65f
7:48am 6 10 mph 1011.2mb 65f
7:42am 7 9 mph 1011.5mb 65f
7:36am 7 11 mph 1011.8mb 65f
7:30am 7 9 mph 1011.8mb 65f
7:24am 7 10 mph 1011.8mb 65f
7:18am 6 9 mph 1011.9mb 65f
7:12am 6 7 mph 1011.8mb 65f
7:06am 3 6 mph 1011.8mb 65f
7:00am 3 5 mph 1011.6mb 65f
6:54am 3 5 mph 1011.8mb 66f
6:48am 2 5 mph 1011.9mb 66f
6:42am 5 7 mph 1011.8mb 66f
6:36am 6 7 mph 1011.9mb 65f
6:30am 2 3 mph 1011.8mb 65f
6:24am 2 3 mph 1011.8mb 65f
6:18am 3 5 mph 1011.9mb 66f
6:12am 2 5 mph 1012mb 66f
6:06am 3 7 mph 1012mb 66f
6:00am 5 7 mph 1012mb 66f
5:54am 2 6 mph 1011.9mb 66f
5:48am 3 6 mph 1011.9mb 66f
5:42am 2 3 mph 1012.1mb 67f
5:36am 3 5 mph 1012.1mb 67f
5:30am 3 7 mph 1011.8mb 68f
5:24am 5 7 mph 1011.7mb 68f
5:18am 6 8 mph 1011.7mb 68f
5:12am 6 9 mph 1011.5mb 69f
5:06am 6 10 mph 1011.4mb 69f
5:00am 6 10 mph 1011.3mb 69f
4:54am 7 9 mph 1011.4mb 69f
4:48am 7 9 mph 1011.4mb 69f
4:42am 6 8 mph 1011.3mb 69f
4:36am 5 7 mph 1011.4mb 69f
4:30am 5 8 mph 1011.4mb 69f
4:24am 5 8 mph 1011.4mb 69f
4:18am 5 7 mph 1011.5mb 69f
4:12am 5 7 mph 1011.5mb 69f
4:06am 5 7 mph 1011.5mb 69f
4:00am 5 6 mph 1011.6mb 69f
3:54am 3 6 mph 1011.7mb 70f
3:48am 3 6 mph 1011.6mb 70f
3:42am 6 8 mph 1011.6mb 70f
3:36am 5 7 mph 1011.8mb 70f
3:30am 3 6 mph 1011.9mb 70f
3:24am 3 6 mph 1011.8mb 69f
3:18am 3 5 mph 1011.9mb 69f
3:12am 3 6 mph 1011.9mb 70f
3:06am 5 7 mph 1011.9mb 70f
3:00am 5 6 mph 1011.8mb 70f
2:54am 5 7 mph 1011.9mb 70f
2:48am 5 6 mph 1012mb 70f
2:42am 3 6 mph 1012.1mb 70f
2:36am 3 6 mph 1012.1mb 70f
2:30am 3 6 mph 1012.1mb 70f
2:24am 2 3 mph 1012.1mb 70f
2:18am 2 6 mph 1012.1mb 70f
2:12am 3 6 mph 1012.1mb 70f
2:06am 5 6 mph 1012.1mb 69f
2:00am 3 5 mph 1012.2mb 69f
1:54am 3 5 mph 1012.2mb 70f
1:48am 2 5 mph 1012.3mb 69f
1:42am 2 5 mph 1012.4mb 69f
1:36am 3
mph
1012.5mb 69f
1:30am  -  1 mph 1012.3mb 69f
1:24am 1 2 mph 1012.3mb 69f
1:18am 1 3 mph 1012.5mb 69f
1:12am 1 2 mph 1012.6mb 69f
1:06am 2 3 mph 1012.6mb 69f
1:00am 2 3 mph 1012.5mb 69f
12:54am 3 5 mph 1012.5mb 69f
12:48am 3 6 mph 1012.6mb 69f
12:42am 3 5 mph 1012.5mb 69f
12:36am 2 3 mph 1012.5mb 69f
12:30am 1 3 mph 1012.7mb 69f
12:24am 2 3 mph 1012.6mb 69f
12:18am 2 3 mph 1012.7mb 69f
12:12am 3
mph
1012.6mb 70f
12:06am 2 3 mph 1012.6mb 70f
12:00am 2 5 mph 1012.7mb 70f
Sat 07/23 11:54pm 2 3 mph 1012.7mb 70f
11:48pm 3 5 mph 1012.7mb 69f
11:42pm 2 5 mph 1012.7mb 70f
11:36pm 3 5 mph 1012.8mb 69f
11:30pm 2 3 mph 1012.7mb 69f
11:24pm 1 3 mph 1012.7mb 70f
11:18pm 2 5 mph 1012.8mb 69f
11:12pm 3
mph
1012.9mb 69f
11:06pm 3 5 mph 1012.8mb 69f
11:00pm 3
mph
1012.8mb 69f
10:54pm 2 3 mph 1012.7mb 69f
10:48pm 3 5 mph 1012.6mb 70f
10:42pm 3
mph
1012.6mb 69f
10:36pm  -  1 mph 1012.6mb 69f
10:30pm  -  1 mph 1012.6mb 69f
10:24pm  -  1 mph 1012.6mb 69f
10:18pm  -  mph - 69f
10:12pm  -  1 mph - 69f
10:06pm  -  1 mph - 69f
10:00pm  -  mph - 70f
9:54pm  -  mph - 70f
9:48pm  -  1 mph 1013mb -
9:42pm  -  mph 1013mb -
9:36pm  -  1 mph 1013mb -